Time;durP1;ratioP1;P1;durP2;ratioP2;P2;SDS_P1;SDS_P2;PMS_P1;PMS_P2;Temp;Humidity;BMP_temperature;BMP_pressure;BME280_temperature;BME280_humidity;BME280_pressure;Samples;Min_cycle;Max_cycle;Signal;HPM_P1;HPM_P2
2024/02/20 00:00:51;;;;;;;6.18;3.63;;;;;;;6.64;100.00;99083.03;6109880;19;20026;-72
2024/02/20 00:02:51;;;;;;;5.70;3.70;;;;;;;6.61;100.00;99081.75;6110473;19;20343;-72
2024/02/20 00:04:52;;;;;;;6.97;3.70;;;;;;;6.63;100.00;99082.25;6108649;19;20002;-72
2024/02/20 00:06:52;;;;;;;8.13;3.60;;;;;;;6.65;100.00;99076.41;6109910;19;20024;-72
2024/02/20 00:08:52;;;;;;;7.18;3.70;;;;;;;6.67;100.00;99080.41;6109833;19;20011;-72
2024/02/20 00:10:53;;;;;;;5.47;3.65;;;;;;;6.62;100.00;99077.88;6109137;19;20003;-72
2024/02/20 00:12:53;;;;;;;5.20;3.38;;;;;;;6.64;100.00;99088.53;6109351;19;19998;-72
2024/02/20 00:14:53;;;;;;;5.18;3.55;;;;;;;6.62;100.00;99083.38;6109544;19;20005;-72
2024/02/20 00:16:54;;;;;;;7.57;3.58;;;;;;;6.63;100.00;99082.25;6110063;19;20006;-72
2024/02/20 00:18:55;;;;;;;5.57;3.25;;;;;;;6.69;100.00;99078.13;6107755;19;19995;-72
2024/02/20 00:20:55;;;;;;;4.93;3.20;;;;;;;6.67;100.00;99074.09;6109105;19;19998;-72
2024/02/20 00:22:55;;;;;;;9.32;3.67;;;;;;;6.79;100.00;99081.63;6110077;19;20005;-73
2024/02/20 00:24:56;;;;;;;7.40;3.67;;;;;;;6.78;100.00;99080.00;6109894;19;20002;-72
2024/02/20 00:26:56;;;;;;;8.13;3.70;;;;;;;6.78;100.00;99086.28;6109611;19;20006;-72
2024/02/20 00:28:57;;;;;;;7.85;3.78;;;;;;;6.73;100.00;99078.25;6107460;19;20458;-72
2024/02/20 00:30:57;;;;;;;8.77;3.70;;;;;;;6.68;100.00;99082.00;6109337;19;20002;-73
2024/02/20 00:32:57;;;;;;;6.90;3.60;;;;;;;6.67;100.00;99091.41;6109407;19;20025;-72
2024/02/20 00:34:58;;;;;;;6.70;3.65;;;;;;;6.70;100.00;99079.75;6108553;19;20003;-72
2024/02/20 00:36:58;;;;;;;8.38;4.72;;;;;;;6.61;100.00;99084.50;6109154;19;20002;-72
2024/02/20 00:38:59;;;;;;;8.40;4.43;;;;;;;6.57;100.00;99080.84;6108638;19;20482;-73
2024/02/20 00:40:59;;;;;;;7.07;3.78;;;;;;;6.67;100.00;99093.34;6108601;19;20006;-72
2024/02/20 00:43:00;;;;;;;5.95;3.53;;;;;;;6.66;100.00;99083.50;6109642;19;20006;-72
2024/02/20 00:45:03;;;;;;;9.52;4.32;;;;;;;6.64;100.00;99094.03;6109540;19;19999;-72
2024/02/20 00:47:09;;;;;;;6.78;3.75;;;;;;;6.71;100.00;99088.81;6105477;19;20412;-72
2024/02/20 00:49:10;;;;;;;6.18;3.63;;;;;;;6.71;100.00;99097.06;6106806;19;20486;-72
2024/02/20 00:51:10;;;;;;;8.50;3.83;;;;;;;6.68;100.00;99097.72;6108322;19;20332;-72
2024/02/20 00:53:11;;;;;;;9.05;3.88;;;;;;;6.63;100.00;99097.94;6109164;19;19999;-72
2024/02/20 00:55:12;;;;;;;5.53;3.47;;;;;;;6.62;100.00;99096.31;6108057;19;20021;-73
2024/02/20 00:57:13;;;;;;;9.90;3.50;;;;;;;6.59;100.00;99086.78;6109406;19;20006;-72
2024/02/20 00:59:13;;;;;;;5.28;3.15;;;;;;;6.62;100.00;99093.56;6107036;19;20420;-72
2024/02/20 01:01:14;;;;;;;7.18;3.70;;;;;;;6.60;100.00;99090.34;6109121;19;19999;-72
2024/02/20 01:03:14;;;;;;;6.82;3.53;;;;;;;6.66;100.00;99089.00;6107882;19;20003;-72
2024/02/20 01:05:15;;;;;;;5.97;3.47;;;;;;;6.59;100.00;99092.28;6108413;19;20609;-73
2024/02/20 01:07:15;;;;;;;6.93;3.60;;;;;;;6.53;100.00;99098.31;6107734;19;20005;-72
2024/02/20 01:09:15;;;;;;;9.27;4.53;;;;;;;6.61;100.00;99095.50;6107349;19;19998;-72
2024/02/20 01:11:16;;;;;;;9.18;4.13;;;;;;;6.58;100.00;99098.94;6107331;19;20027;-72
2024/02/20 01:13:16;;;;;;;6.57;3.70;;;;;;;6.54;100.00;99105.44;6108493;19;20007;-72
2024/02/20 01:15:16;;;;;;;5.82;3.58;;;;;;;6.50;100.00;99110.81;6107970;19;20007;-72
2024/02/20 01:17:17;;;;;;;6.75;3.70;;;;;;;6.46;100.00;99112.63;6107357;19;20014;-72
2024/02/20 01:19:17;;;;;;;7.28;4.05;;;;;;;6.49;100.00;99109.19;6106608;19;20026;-72
2024/02/20 01:21:17;;;;;;;7.18;3.97;;;;;;;6.43;100.00;99102.28;6107704;19;20003;-73
2024/02/20 01:23:18;;;;;;;5.30;3.78;;;;;;;6.40;100.00;99109.28;6108209;19;20014;-72
2024/02/20 01:25:18;;;;;;;10.32;4.00;;;;;;;6.46;100.00;99112.63;6107948;19;20003;-72
2024/02/20 01:27:19;;;;;;;7.18;4.22;;;;;;;6.37;100.00;99107.19;6107364;19;20005;-73
2024/02/20 01:29:21;;;;;;;6.90;4.07;;;;;;;6.36;100.00;99105.56;6107150;19;20003;-73
2024/02/20 01:31:22;;;;;;;6.22;3.90;;;;;;;6.41;100.00;99102.63;6108024;19;20018;-73
2024/02/20 01:33:23;;;;;;;6.35;3.78;;;;;;;6.38;100.00;99099.75;6107284;19;20324;-72
2024/02/20 01:35:24;;;;;;;7.18;3.83;;;;;;;6.37;100.00;99101.69;6107619;19;20054;-73
2024/02/20 01:37:24;;;;;;;10.50;4.32;;;;;;;6.34;100.00;99110.59;6108294;19;20028;-73
2024/02/20 01:39:24;;;;;;;6.50;3.42;;;;;;;6.40;100.00;99109.28;6105926;19;20003;-73
2024/02/20 01:41:27;;;;;;;5.85;4.03;;;;;;;6.42;100.00;99115.22;6106863;19;20007;-73
2024/02/20 01:43:28;;;;;;;8.07;4.20;;;;;;;6.39;100.00;99112.34;6106642;19;20030;-73
2024/02/20 01:45:30;;;;;;;6.80;3.72;;;;;;;6.29;100.00;99108.06;6105274;19;20321;-73
2024/02/20 01:47:31;;;;;;;6.55;4.15;;;;;;;6.14;100.00;99114.94;6105724;19;20014;-72
2024/02/20 01:49:33;;;;;;;6.37;4.13;;;;;;;6.10;100.00;99111.25;6105350;19;20010;-72
2024/02/20 01:51:35;;;;;;;7.35;3.65;;;;;;;6.09;100.00;99128.06;6104848;19;20003;-73
2024/02/20 01:53:35;;;;;;;8.27;3.63;;;;;;;6.13;100.00;99118.03;6106224;19;20011;-72
2024/02/20 01:55:36;;;;;;;6.78;4.05;;;;;;;6.10;100.00;99121.44;6105894;19;20437;-72
2024/02/20 01:57:36;;;;;;;7.32;4.20;;;;;;;6.08;100.00;99118.22;6106530;19;19999;-72
2024/02/20 01:59:37;;;;;;;8.70;4.50;;;;;;;6.02;100.00;99120.34;6109187;19;20027;-72
2024/02/20 02:01:38;;;;;;;7.35;3.80;;;;;;;6.01;100.00;99120.69;6111758;19;20007;-72
2024/02/20 02:03:38;;;;;;;7.80;3.72;;;;;;;5.98;100.00;99119.41;6113378;19;20105;-72
2024/02/20 02:05:38;;;;;;;12.18;4.80;;;;;;;5.94;100.00;99123.94;6111522;19;20340;-72
2024/02/20 02:07:39;;;;;;;8.32;4.13;;;;;;;5.98;100.00;99127.66;6112047;19;20353;-72
2024/02/20 02:09:39;;;;;;;9.48;4.07;;;;;;;6.00;100.00;99128.13;6111350;19;20435;-72
2024/02/20 02:11:39;;;;;;;7.60;3.80;;;;;;;6.00;100.00;99133.63;6112287;19;20011;-72
2024/02/20 02:13:40;;;;;;;6.15;3.95;;;;;;;5.93;100.00;99125.09;6112693;19;20006;-72
2024/02/20 02:15:41;;;;;;;7.65;4.32;;;;;;;5.94;100.00;99128.63;6101161;19;20334;-72
2024/02/20 02:17:41;;;;;;;7.70;4.13;;;;;;;5.97;100.00;99120.56;6112245;19;20406;-72
2024/02/20 02:19:42;;;;;;;7.68;4.18;;;;;;;5.89;100.00;99116.69;6111776;19;20102;-72
2024/02/20 02:21:42;;;;;;;14.07;6.75;;;;;;;5.92;100.00;99117.97;6110534;19;20007;-72
2024/02/20 02:23:42;;;;;;;21.95;10.45;;;;;;;5.88;100.00;99117.03;6112234;19;19999;-72
2024/02/20 02:25:43;;;;;;;48.28;20.42;;;;;;;5.90;100.00;99114.75;6112263;19;20006;-72
2024/02/20 02:27:43;;;;;;;31.90;13.27;;;;;;;5.87;100.00;99110.69;6111170;19;20456;-72
2024/02/20 02:29:43;;;;;;;52.72;22.48;;;;;;;5.86;100.00;99120.06;6109420;19;20011;-73
2024/02/20 02:31:44;;;;;;;48.67;20.33;;;;;;;5.87;100.00;99112.63;6111904;19;20013;-72
2024/02/20 02:33:46;;;;;;;70.50;29.33;;;;;;;5.85;100.00;99117.66;6110700;19;19995;-72
2024/02/20 02:35:46;;;;;;;34.57;17.90;;;;;;;5.84;100.00;99116.06;6111178;19;19998;-72
2024/02/20 02:37:46;;;;;;;14.23;8.73;;;;;;;5.88;100.00;99122.50;6112307;19;20014;-72
2024/02/20 02:39:47;;;;;;;11.48;6.32;;;;;;;5.86;100.00;99114.56;6110954;19;20078;-72
2024/02/20 02:41:49;;;;;;;7.22;4.85;;;;;;;5.87;100.00;99127.16;6109862;19;20002;-72
2024/02/20 02:43:50;;;;;;;6.57;4.60;;;;;;;5.85;100.00;99117.66;6110744;19;20006;-72
2024/02/20 02:45:51;;;;;;;8.90;5.10;;;;;;;5.85;100.00;99115.72;6110534;19;20379;-72
2024/02/20 02:47:52;;;;;;;7.22;4.00;;;;;;;5.87;100.00;99138.16;6110675;19;20010;-72
2024/02/20 02:49:52;;;;;;;6.40;3.58;;;;;;;5.86;100.00;99125.56;6110674;19;20014;-72
2024/02/20 02:51:52;;;;;;;6.95;4.07;;;;;;;5.83;100.00;99122.69;6109761;19;20089;-72
2024/02/20 02:53:53;;;;;;;7.82;3.65;;;;;;;5.85;100.00;99132.19;6110411;19;20045;-72
2024/02/20 02:55:53;;;;;;;6.10;4.00;;;;;;;5.85;100.00;99131.41;6111209;19;20013;-72
2024/02/20 02:57:53;;;;;;;6.45;3.55;;;;;;;5.84;100.00;99132.53;6111495;19;20107;-72
2024/02/20 02:59:54;;;;;;;7.07;3.20;;;;;;;5.83;100.00;99131.72;6109275;19;20343;-72
2024/02/20 03:01:54;;;;;;;8.30;3.90;;;;;;;5.80;100.00;99142.59;6109992;19;20006;-72
2024/02/20 03:03:54;;;;;;;7.70;3.70;;;;;;;5.89;100.00;99140.59;6111893;19;20002;-72
2024/02/20 03:05:55;;;;;;;8.68;3.53;;;;;;;5.87;100.00;99142.84;6110912;19;20020;-72
2024/02/20 03:07:55;;;;;;;5.60;3.20;;;;;;;5.92;100.00;99139.94;6110291;19;20011;-72
2024/02/20 03:09:56;;;;;;;7.88;3.60;;;;;;;5.86;100.00;99138.50;6107193;19;20009;-72
2024/02/20 03:11:57;;;;;;;6.68;3.85;;;;;;;5.86;100.00;99141.25;6110576;19;19999;-72
2024/02/20 03:13:58;;;;;;;8.02;3.80;;;;;;;5.82;100.00;99138.34;6110556;19;20034;-72
2024/02/20 03:15:58;;;;;;;6.18;3.50;;;;;;;5.84;100.00;99146.25;6101815;19;20515;-72
2024/02/20 03:17:58;;;;;;;5.43;3.08;;;;;;;5.83;100.00;99142.72;6103362;19;20087;-72
2024/02/20 03:19:59;;;;;;;6.72;3.28;;;;;;;5.79;100.00;99149.19;6101363;19;20007;-72
2024/02/20 03:21:59;;;;;;;7.32;4.15;;;;;;;5.77;100.00;99155.00;6102684;19;20034;-72
2024/02/20 03:23:59;;;;;;;8.57;3.22;;;;;;;5.78;100.00;99161.31;6103506;19;20082;-72
2024/02/20 03:26:01;;;;;;;6.00;3.30;;;;;;;5.75;100.00;99164.72;6102897;19;20010;-72
2024/02/20 03:28:02;;;;;;;7.78;3.70;;;;;;;5.78;100.00;99162.09;6101309;19;20504;-72
2024/02/20 03:30:04;;;;;;;5.75;3.10;;;;;;;5.81;100.00;99166.16;6100795;19;20307;-72
2024/02/20 03:32:05;;;;;;;7.65;3.58;;;;;;;5.79;100.00;99173.91;6102856;19;20011;-72
2024/02/20 03:34:06;;;;;;;5.82;2.65;;;;;;;5.80;100.00;99168.09;6102190;19;20095;-72
2024/02/20 03:36:07;;;;;;;4.28;2.70;;;;;;;5.80;100.00;99172.78;6102075;19;20237;-72
2024/02/20 03:38:08;;;;;;;4.90;3.15;;;;;;;5.86;100.00;99177.75;6101884;19;20006;-72
2024/02/20 03:40:09;;;;;;;3.65;2.22;;;;;;;5.84;100.00;99177.28;6101784;19;20003;-72
2024/02/20 03:42:09;;;;;;;3.95;2.40;;;;;;;5.78;100.00;99181.31;6101508;19;20474;-72
2024/02/20 03:44:10;;;;;;;4.18;1.98;;;;;;;5.77;100.00;99184.41;6101601;19;20023;-72
2024/02/20 03:46:11;;;;;;;2.85;2.10;;;;;;;5.77;100.00;99185.22;6102182;19;20002;-72
2024/02/20 03:48:12;;;;;;;3.50;1.88;;;;;;;5.73;100.00;99197.19;6102654;19;20015;-72
2024/02/20 03:50:12;;;;;;;2.90;1.83;;;;;;;5.73;100.00;99192.50;6100278;19;20455;-72
2024/02/20 03:52:13;;;;;;;3.53;2.20;;;;;;;5.72;100.00;99195.59;6102151;19;20014;-72
2024/02/20 03:54:13;;;;;;;4.03;1.67;;;;;;;5.75;100.00;99189.44;6102231;19;20066;-72
2024/02/20 03:56:13;;;;;;;7.18;1.67;;;;;;;5.78;100.00;99191.50;6101673;19;19999;-72
2024/02/20 03:58:14;;;;;;;4.70;1.95;;;;;;;5.85;100.00;99192.63;6100970;19;20318;-72
2024/02/20 04:00:14;;;;;;;5.22;2.17;;;;;;;5.79;100.00;99191.22;6100592;19;20014;-73
2024/02/20 04:02:15;;;;;;;2.55;1.45;;;;;;;5.74;100.00;99198.81;6102223;19;20003;-72
2024/02/20 04:04:15;;;;;;;2.95;1.42;;;;;;;5.77;100.00;99189.91;6101345;19;20346;-72
2024/02/20 04:06:16;;;;;;;3.67;1.38;;;;;;;5.76;100.00;99200.09;6101632;19;20136;-72
2024/02/20 04:08:17;;;;;;;1.95;1.40;;;;;;;5.80;100.00;99200.25;6101796;19;19995;-72
2024/02/20 04:10:17;;;;;;;3.35;2.10;;;;;;;5.71;100.00;99193.97;6099793;19;20498;-72
2024/02/20 04:12:18;;;;;;;5.40;1.90;;;;;;;5.66;100.00;99205.94;6101268;19;19999;-72
2024/02/20 04:14:18;;;;;;;2.97;1.45;;;;;;;5.72;100.00;99206.56;6100441;19;20372;-72
2024/02/20 04:16:18;;;;;;;2.13;1.20;;;;;;;5.68;100.00;99205.59;6109195;19;19998;-72
2024/02/20 04:18:19;;;;;;;3.30;1.50;;;;;;;5.62;100.00;99211.25;6109541;19;20353;-72
2024/02/20 04:20:19;;;;;;;5.40;1.67;;;;;;;5.72;100.00;99223.84;6107937;19;19995;-72
2024/02/20 04:22:20;;;;;;;3.00;2.03;;;;;;;5.70;100.00;99228.03;6108648;19;19999;-72
2024/02/20 04:24:20;;;;;;;1.35;1.05;;;;;;;5.73;100.00;99222.72;6109375;19;20430;-72
2024/02/20 04:26:20;;;;;;;2.30;1.40;;;;;;;5.72;100.00;99232.09;6107968;19;20337;-72
2024/02/20 04:28:21;;;;;;;1.92;1.23;;;;;;;5.74;100.00;99229.00;6110002;19;20039;-72
2024/02/20 04:30:21;;;;;;;2.38;1.38;;;;;;;5.62;100.00;99238.72;6107932;19;20026;-72
2024/02/20 04:32:22;;;;;;;1.92;1.73;;;;;;;5.59;100.00;99231.13;6108938;19;20352;-72
2024/02/20 04:34:23;;;;;;;2.08;1.10;;;;;;;5.56;100.00;99244.72;6109747;19;20345;-72
2024/02/20 04:36:24;;;;;;;1.48;0.98;;;;;;;5.54;100.00;99245.03;6108496;19;20365;-72
2024/02/20 04:38:24;;;;;;;4.00;1.20;;;;;;;5.47;100.00;99249.44;6108052;19;20002;-72
2024/02/20 04:40:26;;;;;;;2.13;1.00;;;;;;;5.48;100.00;99243.59;6108212;19;20407;-72
2024/02/20 04:42:26;;;;;;;3.05;1.25;;;;;;;5.47;100.00;99244.75;6108851;19;20011;-72
2024/02/20 04:44:28;;;;;;;1.63;1.20;;;;;;;5.48;100.00;99248.28;6108104;19;20031;-72
2024/02/20 04:46:29;;;;;;;1.92;1.10;;;;;;;5.46;100.00;99250.53;6108542;19;20090;-72
2024/02/20 04:48:29;;;;;;;1.85;1.13;;;;;;;5.38;100.00;99254.09;6108183;19;20006;-72
2024/02/20 04:50:29;;;;;;;2.70;1.20;;;;;;;5.39;100.00;99251.06;6107342;19;20010;-72
2024/02/20 04:52:30;;;;;;;1.80;1.20;;;;;;;5.40;100.00;99260.09;6109149;19;20022;-72
2024/02/20 04:54:30;;;;;;;2.28;1.40;;;;;;;5.37;100.00;99272.50;6108729;19;20251;-72
2024/02/20 04:56:30;;;;;;;3.15;1.50;;;;;;;5.35;100.00;99269.28;6108197;19;20028;-72
2024/02/20 04:58:31;;;;;;;2.03;1.83;;;;;;;5.38;100.00;99268.66;6107834;19;20008;-72
2024/02/20 05:00:32;;;;;;;3.88;1.25;;;;;;;5.36;100.00;99276.38;6107162;19;20082;-72
2024/02/20 05:02:35;;;;;;;2.72;1.13;;;;;;;5.34;100.00;99268.47;6108589;19;20013;-72
2024/02/20 05:04:35;;;;;;;2.65;1.45;;;;;;;5.34;100.00;99279.44;6106873;19;20003;-72
2024/02/20 05:06:35;;;;;;;3.15;1.50;;;;;;;5.27;100.00;99273.63;6105170;19;20783;-72
2024/02/20 05:08:36;;;;;;;4.13;1.85;;;;;;;5.32;100.00;99287.22;6107481;19;20330;-72
2024/02/20 05:10:36;;;;;;;5.50;1.42;;;;;;;5.31;100.00;99276.56;6107231;19;20003;-72
2024/02/20 05:12:37;;;;;;;2.45;1.45;;;;;;;5.37;100.00;99286.22;6106696;19;20006;-72
2024/02/20 05:14:38;;;;;;;4.47;1.75;;;;;;;5.38;100.00;99298.84;6106846;19;20018;-72
2024/02/20 05:16:38;;;;;;;4.38;1.35;;;;;;;5.33;100.00;99290.75;6106986;19;20022;-72
2024/02/20 05:18:38;;;;;;;4.13;1.25;;;;;;;5.35;100.00;99296.72;6104877;19;20014;-72
2024/02/20 05:20:39;;;;;;;5.07;1.92;;;;;;;5.32;100.00;99294.63;6107367;19;20013;-72
2024/02/20 05:22:39;;;;;;;5.05;1.90;;;;;;;5.26;100.00;99288.50;6108084;19;20015;-72
2024/02/20 05:24:42;;;;;;;3.38;2.25;;;;;;;5.21;100.00;99294.16;6107368;19;20017;-72
2024/02/20 05:26:43;;;;;;;2.78;1.60;;;;;;;5.24;100.00;99290.75;6106799;19;20014;-72
2024/02/20 05:28:43;;;;;;;4.90;1.30;;;;;;;5.23;100.00;99286.41;6106852;19;20018;-72
2024/02/20 05:30:43;;;;;;;4.90;1.35;;;;;;;5.22;100.00;99284.78;6107421;19;20006;-72
2024/02/20 05:32:44;;;;;;;4.45;1.42;;;;;;;5.25;100.00;99297.06;6106724;19;20014;-72
2024/02/20 05:34:44;;;;;;;2.95;1.33;;;;;;;5.20;100.00;99291.72;6111048;19;20014;-72
2024/02/20 05:36:44;;;;;;;6.35;1.55;;;;;;;5.20;100.00;99300.75;6113148;19;20347;-72
2024/02/20 05:38:45;;;;;;;4.80;1.52;;;;;;;5.21;100.00;99291.41;6111904;19;20458;-72
2024/02/20 05:40:45;;;;;;;8.73;1.90;;;;;;;5.21;100.00;99305.13;6111829;19;20003;-72
2024/02/20 05:42:46;;;;;;;4.57;1.50;;;;;;;5.19;100.00;99295.59;6112385;19;20027;-72
2024/02/20 05:44:47;;;;;;;7.60;2.25;;;;;;;5.09;100.00;99299.47;6110688;19;20006;-72
2024/02/20 05:46:47;;;;;;;5.43;1.58;;;;;;;5.10;100.00;99309.31;6110859;19;20040;-72
2024/02/20 05:48:47;;;;;;;4.50;1.70;;;;;;;5.09;100.00;99304.94;6111588;19;20009;-72
2024/02/20 05:50:48;;;;;;;4.90;2.10;;;;;;;5.06;100.00;99302.88;6112311;19;20014;-72
2024/02/20 05:52:48;;;;;;;2.35;1.35;;;;;;;5.16;100.00;99312.72;6111658;19;20035;-72
2024/02/20 05:54:49;;;;;;;6.75;1.98;;;;;;;5.21;100.00;99310.63;6110901;19;20343;-72
2024/02/20 05:56:49;;;;;;;4.68;1.60;;;;;;;5.23;100.00;99316.59;6111476;19;20028;-72
2024/02/20 05:58:49;;;;;;;4.68;2.33;;;;;;;5.23;100.00;99324.00;6108521;19;20006;-72
2024/02/20 06:00:50;;;;;;;12.02;2.35;;;;;;;5.23;100.00;99318.53;6111239;19;20014;-72
2024/02/20 06:02:50;;;;;;;7.05;2.17;;;;;;;5.20;100.00;99330.13;6112906;19;20015;-72
2024/02/20 06:04:51;;;;;;;6.47;1.85;;;;;;;5.20;100.00;99332.88;6112175;19;20007;-72
2024/02/20 06:06:52;;;;;;;15.00;6.05;;;;;;;5.12;100.00;99330.91;6111884;19;20463;-72
2024/02/20 06:08:52;;;;;;;5.50;1.77;;;;;;;5.08;100.00;99334.31;6110265;19;20017;-72
2024/02/20 06:10:52;;;;;;;3.15;1.40;;;;;;;5.12;100.00;99337.22;6111311;19;20006;-72
2024/02/20 06:12:53;;;;;;;5.13;1.60;;;;;;;5.14;100.00;99334.19;6113004;19;20030;-72
2024/02/20 06:14:53;;;;;;;6.88;2.83;;;;;;;5.15;100.00;99333.03;6111684;19;20006;-72
2024/02/20 06:16:53;;;;;;;4.97;1.75;;;;;;;5.17;100.00;99341.75;6112252;19;20090;-72
2024/02/20 06:18:54;;;;;;;4.85;1.63;;;;;;;5.10;100.00;99336.72;6110814;19;20062;-72
2024/02/20 06:20:54;;;;;;;5.53;1.45;;;;;;;5.14;100.00;99348.69;6110983;19;20026;-72
2024/02/20 06:22:59;;;;;;;4.53;1.90;;;;;;;5.16;100.00;99351.13;6111310;19;20025;-72
2024/02/20 06:24:59;;;;;;;5.20;1.73;;;;;;;5.09;100.00;99354.31;6111957;19;20486;-72
2024/02/20 06:27:02;;;;;;;10.75;1.70;;;;;;;5.11;100.00;99359.47;6111108;19;20002;-72
2024/02/20 06:29:03;;;;;;;6.10;1.52;;;;;;;5.10;100.00;99353.19;6110365;19;20084;-72
2024/02/20 06:31:05;;;;;;;7.38;1.95;;;;;;;5.01;100.00;99361.41;6111490;19;20345;-72
2024/02/20 06:33:05;;;;;;;9.25;1.98;;;;;;;5.01;100.00;99368.84;6111525;19;20007;-72
2024/02/20 06:35:09;;;;;;;11.45;2.05;;;;;;;4.98;100.00;99374.97;6110573;19;19999;-72
2024/02/20 06:37:09;;;;;;;6.32;2.05;;;;;;;5.01;100.00;99371.56;6109782;19;20034;-72
2024/02/20 06:39:10;;;;;;;6.05;1.63;;;;;;;5.10;100.00;99374.34;6108546;19;20014;-72
2024/02/20 06:41:10;;;;;;;8.35;1.85;;;;;;;5.03;100.00;99375.59;6108691;19;20070;-72
2024/02/20 06:43:11;;;;;;;9.48;1.63;;;;;;;5.00;100.00;99381.75;6109664;19;20030;-72
2024/02/20 06:45:11;;;;;;;8.43;2.28;;;;;;;5.03;100.00;99380.28;6107508;19;20010;-72
2024/02/20 06:47:14;;;;;;;6.13;2.03;;;;;;;4.99;100.00;99388.34;6109319;19;20090;-72
2024/02/20 06:49:14;;;;;;;6.63;2.00;;;;;;;5.04;100.00;99388.19;6106255;19;20422;-72
2024/02/20 06:51:14;;;;;;;3.83;1.85;;;;;;;5.04;100.00;99379.16;6106903;19;20010;-72
2024/02/20 06:53:15;;;;;;;6.95;1.85;;;;;;;5.05;100.00;99392.56;6109691;19;20353;-72
2024/02/20 06:55:15;;;;;;;11.65;2.20;;;;;;;5.01;100.00;99386.09;6109091;19;20003;-72
2024/02/20 06:57:15;;;;;;;8.63;2.05;;;;;;;5.06;100.00;99387.88;6110942;19;20022;-72
2024/02/20 06:59:16;;;;;;;6.30;1.77;;;;;;;5.06;100.00;99394.19;6110462;19;20003;-72
2024/02/20 07:01:16;;;;;;;9.38;2.13;;;;;;;4.94;100.00;99396.72;6109256;19;20010;-72
2024/02/20 07:03:17;;;;;;;5.45;1.77;;;;;;;4.96;100.00;99396.41;6111040;19;20010;-72
2024/02/20 07:05:17;;;;;;;4.32;1.67;;;;;;;4.98;100.00;99396.91;6109984;19;20016;-72
2024/02/20 07:07:18;;;;;;;7.70;1.90;;;;;;;4.93;100.00;99395.09;6111235;19;19999;-72
2024/02/20 07:09:18;;;;;;;6.47;1.92;;;;;;;5.02;100.00;99406.91;6109870;19;20003;-72
2024/02/20 07:11:18;;;;;;;6.13;1.83;;;;;;;5.03;100.00;99402.22;6110035;19;20328;-72
2024/02/20 07:13:19;;;;;;;12.57;5.20;;;;;;;5.02;100.00;99417.88;6111863;19;20394;-72
2024/02/20 07:15:20;;;;;;;44.88;18.55;;;;;;;4.97;100.00;99412.56;6100675;19;20327;-72
2024/02/20 07:17:21;;;;;;;13.38;5.53;;;;;;;5.00;100.00;99413.84;6109421;19;20006;-72
2024/02/20 07:19:25;;;;;;;6.97;3.00;;;;;;;5.07;100.00;99422.41;6109897;19;20439;-72
2024/02/20 07:21:25;;;;;;;7.13;1.85;;;;;;;5.10;100.00;99427.25;6110119;19;20228;-72
2024/02/20 07:23:26;;;;;;;3.75;1.90;;;;;;;5.05;100.00;99425.47;6109324;19;20007;-72
2024/02/20 07:25:26;;;;;;;4.60;1.60;;;;;;;5.08;100.00;99426.78;6110699;19;20007;-72
2024/02/20 07:27:26;;;;;;;3.58;2.00;;;;;;;5.12;100.00;99427.75;6111034;19;20002;-72
2024/02/20 07:29:27;;;;;;;6.80;1.83;;;;;;;5.13;100.00;99425.81;6109724;19;19998;-72
2024/02/20 07:31:27;;;;;;;4.32;2.00;;;;;;;5.06;100.00;99440.00;6107724;19;20357;-72
2024/02/20 07:33:27;;;;;;;7.40;2.40;;;;;;;5.14;100.00;99432.94;6108961;19;20003;-72
2024/02/20 07:35:28;;;;;;;7.07;2.40;;;;;;;5.12;100.00;99435.97;6109930;19;20005;-72
2024/02/20 07:37:28;;;;;;;12.57;2.88;;;;;;;5.16;100.00;99438.91;6109493;19;20519;-72
2024/02/20 07:39:28;;;;;;;5.20;2.85;;;;;;;5.15;100.00;99440.84;6106772;19;20007;-72
2024/02/20 07:41:29;;;;;;;5.45;2.13;;;;;;;5.09;100.00;99425.66;6108323;19;20066;-72
2024/02/20 07:43:29;;;;;;;9.27;2.17;;;;;;;5.10;100.00;99432.75;6109137;19;19999;-72
2024/02/20 07:45:29;;;;;;;7.15;2.03;;;;;;;5.07;100.00;99444.38;6109686;19;20391;-72
2024/02/20 07:47:30;;;;;;;6.82;2.70;;;;;;;5.12;100.00;99438.72;6109799;19;20301;-72
2024/02/20 07:49:30;;;;;;;6.40;2.38;;;;;;;5.17;100.00;99448.75;6108471;19;19994;-72
2024/02/20 07:51:33;;;;;;;7.35;2.03;;;;;;;5.22;100.00;99438.44;6108488;19;19998;-72
2024/02/20 07:53:33;;;;;;;;;;;;;;;5.30;100.00;99453.31;6110996;19;20007;-72
2024/02/20 07:55:39;;;;;;;8.95;2.38;;;;;;;5.31;100.00;99457.66;6109497;19;19921;-72
2024/02/20 07:57:40;;;;;;;8.07;2.95;;;;;;;5.37;100.00;99461.84;6106276;19;20002;-72
2024/02/20 07:59:41;;;;;;;13.35;3.10;;;;;;;5.38;100.00;99468.16;6106680;19;20258;-72
2024/02/20 08:01:49;;;;;;;10.02;3.25;;;;;;;5.39;100.00;99467.84;6107211;19;20447;-72
2024/02/20 08:03:52;;;;;;;12.00;3.05;;;;;;;5.44;100.00;99470.44;6108976;19;20026;-72
2024/02/20 08:05:52;;;;;;;9.25;2.42;;;;;;;5.41;100.00;99475.75;6107481;19;20058;-72
2024/02/20 08:07:54;;;;;;;14.30;2.70;;;;;;;5.39;100.00;99464.31;6109645;19;20244;-72
2024/02/20 08:09:55;;;;;;;10.77;3.42;;;;;;;5.45;100.00;99468.50;6108071;19;20003;-72
2024/02/20 08:11:55;;;;;;;12.18;3.30;;;;;;;5.57;100.00;99468.69;6107245;19;20033;-72
2024/02/20 08:13:56;;;;;;;12.50;2.75;;;;;;;5.56;100.00;99462.41;6109507;19;20010;-72
2024/02/20 08:15:58;;;;;;;10.55;3.00;;;;;;;5.58;100.00;99462.88;6099795;19;20003;-72
2024/02/20 08:17:58;;;;;;;8.27;3.03;;;;;;;5.70;100.00;99458.69;6100783;19;19999;-72
2024/02/20 08:19:59;;;;;;;8.25;2.42;;;;;;;5.67;100.00;99459.34;6099706;19;20014;-72
2024/02/20 08:21:59;;;;;;;7.90;1.77;;;;;;;5.67;100.00;99456.59;6101049;19;19998;-72
2024/02/20 08:24:00;;;;;;;9.30;2.90;;;;;;;5.75;100.00;99459.34;6100496;19;20002;-72
2024/02/20 08:26:02;;;;;;;4.80;1.58;;;;;;;5.86;100.00;99468.06;6099989;19;20017;-72
2024/02/20 08:28:03;;;;;;;12.68;2.97;;;;;;;5.79;100.00;99465.81;6100260;19;20510;-72
2024/02/20 08:30:04;;;;;;;6.53;2.15;;;;;;;5.74;100.00;99460.47;6098669;19;20014;-72
2024/02/20 08:32:04;;;;;;;10.45;2.78;;;;;;;5.82;100.00;99461.59;6098286;19;20685;-72
2024/02/20 08:34:04;;;;;;;9.93;2.70;;;;;;;5.75;100.00;99462.09;6097310;19;20076;-72
2024/02/20 08:36:05;;;;;;;5.85;1.88;;;;;;;5.77;100.00;99467.25;6098150;19;20522;-72
2024/02/20 08:38:06;;;;;;;5.63;1.77;;;;;;;5.84;100.00;99468.38;6097657;19;20007;-72
2024/02/20 08:40:07;;;;;;;12.10;2.88;;;;;;;5.83;100.00;99465.97;6096559;19;20023;-72
2024/02/20 08:42:07;;;;;;;8.13;2.28;;;;;;;5.84;100.00;99459.34;6098442;19;20007;-72
2024/02/20 08:44:08;;;;;;;17.88;4.70;;;;;;;5.87;100.00;99464.97;6097549;19;20489;-72
2024/02/20 08:46:08;;;;;;;13.13;3.75;;;;;;;5.96;100.00;99462.28;6099385;19;20475;-72
2024/02/20 08:48:09;;;;;;;15.95;3.03;;;;;;;5.98;100.00;99462.78;6099162;19;20006;-72
2024/02/20 08:50:09;;;;;;;8.27;2.25;;;;;;;5.99;100.00;99463.56;6098487;19;19999;-72
2024/02/20 08:52:10;;;;;;;7.70;2.10;;;;;;;6.11;100.00;99456.28;6099560;19;20010;-72
2024/02/20 08:54:10;;;;;;;7.97;2.42;;;;;;;6.06;100.00;99461.97;6100262;19;20012;-72
2024/02/20 08:56:10;;;;;;;11.15;2.60;;;;;;;6.10;100.00;99457.41;6100770;19;20009;-72
2024/02/20 08:58:11;;;;;;;11.25;2.03;;;;;;;6.28;100.00;99468.38;6100347;19;20228;-72
2024/02/20 09:00:12;;;;;;;10.70;3.88;;;;;;;6.30;100.00;99463.41;6097408;19;20344;-72
2024/02/20 09:02:14;;;;;;;13.82;2.78;;;;;;;6.37;100.00;99475.50;6099698;19;20003;-72
2024/02/20 09:04:14;;;;;;;5.35;2.05;;;;;;;6.51;100.00;99461.56;6100254;19;20368;-72
2024/02/20 09:06:14;;;;;;;10.98;2.92;;;;;;;6.56;100.00;99452.34;6100429;19;20003;-72
2024/02/20 09:08:15;;;;;;;5.68;1.95;;;;;;;6.51;100.00;99461.56;6099036;19;20006;-72
2024/02/20 09:10:16;;;;;;;11.70;3.50;;;;;;;6.58;100.00;99464.63;6105180;19;20458;-72
2024/02/20 09:12:19;;;;;;;10.50;2.78;;;;;;;6.52;100.00;99460.41;6106334;19;20427;-72
2024/02/20 09:14:19;;;;;;;7.90;2.72;;;;;;;6.52;100.00;99456.88;6105083;19;20003;-72
2024/02/20 09:16:19;;;;;;;10.30;2.80;;;;;;;6.36;100.00;99462.06;6114124;19;19999;-72
2024/02/20 09:18:20;;;;;;;7.45;2.30;;;;;;;6.39;100.00;99461.44;6114704;19;20337;-72
2024/02/20 09:20:20;;;;;;;15.55;2.30;;;;;;;6.38;100.00;99465.31;6112370;19;20022;-72
2024/02/20 09:22:20;;;;;;;7.63;3.03;;;;;;;6.37;100.00;99459.03;6113940;19;20022;-72
2024/02/20 09:24:21;;;;;;;8.50;2.30;;;;;;;6.42;100.00;99463.53;6113857;19;20014;-72
2024/02/20 09:26:21;;;;;;;11.93;2.85;;;;;;;6.43;100.00;99463.19;6114753;19;20010;-72